sensor_id;sensor_type;location;lat;lon;timestamp;P1;durP1;ratioP1;P2;durP2;ratioP2
64031;SDS011;50278;47.796;11.968;2022-11-15T00:01:52;2.85;;;1.48;;
64031;SDS011;50278;47.796;11.968;2022-11-15T00:04:36;2.50;;;1.30;;
64031;SDS011;50278;47.796;11.968;2022-11-15T00:07:20;3.22;;;1.30;;
64031;SDS011;50278;47.796;11.968;2022-11-15T00:10:04;1.83;;;1.20;;
64031;SDS011;50278;47.796;11.968;2022-11-15T00:12:48;1.35;;;1.10;;
64031;SDS011;50278;47.796;11.968;2022-11-15T00:15:34;1.55;;;1.30;;
64031;SDS011;50278;47.796;11.968;2022-11-15T00:18:19;1.80;;;1.00;;
64031;SDS011;50278;47.796;11.968;2022-11-15T00:21:04;1.98;;;1.10;;
64031;SDS011;50278;47.796;11.968;2022-11-15T00:23:51;1.45;;;0.98;;
64031;SDS011;50278;47.796;11.968;2022-11-15T00:26:35;3.00;;;0.88;;
64031;SDS011;50278;47.796;11.968;2022-11-15T00:29:19;1.42;;;1.10;;
64031;SDS011;50278;47.796;11.968;2022-11-15T00:32:03;1.13;;;0.90;;
64031;SDS011;50278;47.796;11.968;2022-11-15T00:34:47;1.73;;;1.13;;
64031;SDS011;50278;47.796;11.968;2022-11-15T00:37:31;1.40;;;1.10;;
64031;SDS011;50278;47.796;11.968;2022-11-15T00:40:15;1.90;;;1.33;;
64031;SDS011;50278;47.796;11.968;2022-11-15T00:42:58;1.42;;;1.10;;
64031;SDS011;50278;47.796;11.968;2022-11-15T00:45:43;1.55;;;1.08;;
64031;SDS011;50278;47.796;11.968;2022-11-15T00:48:27;1.88;;;1.23;;
64031;SDS011;50278;47.796;11.968;2022-11-15T00:51:12;2.00;;;1.00;;
64031;SDS011;50278;47.796;11.968;2022-11-15T00:53:56;1.50;;;1.20;;
64031;SDS011;50278;47.796;11.968;2022-11-15T00:56:40;1.25;;;1.00;;
64031;SDS011;50278;47.796;11.968;2022-11-15T00:59:24;1.55;;;1.05;;
64031;SDS011;50278;47.796;11.968;2022-11-15T01:02:07;1.23;;;0.93;;
64031;SDS011;50278;47.796;11.968;2022-11-15T01:04:51;1.90;;;1.30;;
64031;SDS011;50278;47.796;11.968;2022-11-15T01:07:35;1.50;;;0.98;;
64031;SDS011;50278;47.796;11.968;2022-11-15T01:10:19;2.58;;;1.45;;
64031;SDS011;50278;47.796;11.968;2022-11-15T01:13:04;1.80;;;1.08;;
64031;SDS011;50278;47.796;11.968;2022-11-15T01:15:47;1.83;;;1.00;;
64031;SDS011;50278;47.796;11.968;2022-11-15T01:18:31;1.67;;;1.10;;
64031;SDS011;50278;47.796;11.968;2022-11-15T01:21:16;3.88;;;1.05;;
64031;SDS011;50278;47.796;11.968;2022-11-15T01:24:01;1.80;;;1.10;;
64031;SDS011;50278;47.796;11.968;2022-11-15T01:26:45;1.60;;;0.95;;
64031;SDS011;50278;47.796;11.968;2022-11-15T01:29:29;1.27;;;0.90;;
64031;SDS011;50278;47.796;11.968;2022-11-15T01:32:13;1.20;;;0.95;;
64031;SDS011;50278;47.796;11.968;2022-11-15T01:34:57;1.60;;;1.17;;
64031;SDS011;50278;47.796;11.968;2022-11-15T01:37:41;1.50;;;1.00;;
64031;SDS011;50278;47.796;11.968;2022-11-15T01:40:25;1.70;;;1.02;;
64031;SDS011;50278;47.796;11.968;2022-11-15T01:49:20;1.67;;;0.90;;
64031;SDS011;50278;47.796;11.968;2022-11-15T01:52:07;1.17;;;0.77;;
64031;SDS011;50278;47.796;11.968;2022-11-15T01:55:00;1.08;;;0.70;;
64031;SDS011;50278;47.796;11.968;2022-11-15T01:57:50;1.40;;;1.08;;
64031;SDS011;50278;47.796;11.968;2022-11-15T02:00:36;1.38;;;0.95;;
64031;SDS011;50278;47.796;11.968;2022-11-15T02:03:21;1.65;;;1.20;;
64031;SDS011;50278;47.796;11.968;2022-11-15T02:06:10;1.45;;;0.90;;
64031;SDS011;50278;47.796;11.968;2022-11-15T02:08:55;1.45;;;0.77;;
64031;SDS011;50278;47.796;11.968;2022-11-15T02:11:40;1.63;;;1.05;;
64031;SDS011;50278;47.796;11.968;2022-11-15T02:14:25;1.20;;;0.85;;
64031;SDS011;50278;47.796;11.968;2022-11-15T02:17:31;1.40;;;1.00;;
64031;SDS011;50278;47.796;11.968;2022-11-15T02:32:20;1.58;;;1.13;;
64031;SDS011;50278;47.796;11.968;2022-11-15T02:35:18;1.95;;;0.98;;
64031;SDS011;50278;47.796;11.968;2022-11-15T02:41:45;1.83;;;1.20;;
64031;SDS011;50278;47.796;11.968;2022-11-15T02:44:38;1.58;;;1.20;;
64031;SDS011;50278;47.796;11.968;2022-11-15T02:47:27;1.20;;;0.90;;
64031;SDS011;50278;47.796;11.968;2022-11-15T02:50:17;1.38;;;0.93;;
64031;SDS011;50278;47.796;11.968;2022-11-15T02:53:04;1.92;;;1.30;;
64031;SDS011;50278;47.796;11.968;2022-11-15T02:55:48;3.28;;;1.30;;
64031;SDS011;50278;47.796;11.968;2022-11-15T03:10:44;2.03;;;1.60;;
64031;SDS011;50278;47.796;11.968;2022-11-15T03:16:45;1.95;;;1.40;;
64031;SDS011;50278;47.796;11.968;2022-11-15T03:19:53;1.38;;;1.02;;
64031;SDS011;50278;47.796;11.968;2022-11-15T03:22:41;1.73;;;1.40;;
64031;SDS011;50278;47.796;11.968;2022-11-15T03:25:27;1.60;;;1.33;;
64031;SDS011;50278;47.796;11.968;2022-11-15T03:28:16;2.40;;;1.48;;
64031;SDS011;50278;47.796;11.968;2022-11-15T03:31:04;2.17;;;1.77;;
64031;SDS011;50278;47.796;11.968;2022-11-15T03:34:10;2.38;;;1.65;;
64031;SDS011;50278;47.796;11.968;2022-11-15T03:37:06;2.13;;;1.40;;
64031;SDS011;50278;47.796;11.968;2022-11-15T03:39:52;2.30;;;1.70;;
64031;SDS011;50278;47.796;11.968;2022-11-15T03:42:38;1.77;;;1.55;;
64031;SDS011;50278;47.796;11.968;2022-11-15T03:45:30;2.35;;;1.70;;
64031;SDS011;50278;47.796;11.968;2022-11-15T03:48:26;2.17;;;1.70;;
64031;SDS011;50278;47.796;11.968;2022-11-15T03:51:14;2.38;;;1.73;;
64031;SDS011;50278;47.796;11.968;2022-11-15T03:53:58;1.75;;;1.58;;
64031;SDS011;50278;47.796;11.968;2022-11-15T03:56:42;2.33;;;1.88;;
64031;SDS011;50278;47.796;11.968;2022-11-15T03:59:26;2.58;;;1.90;;
64031;SDS011;50278;47.796;11.968;2022-11-15T04:02:11;2.45;;;1.95;;
64031;SDS011;50278;47.796;11.968;2022-11-15T04:04:55;2.92;;;2.05;;
64031;SDS011;50278;47.796;11.968;2022-11-15T04:07:40;2.42;;;1.80;;
64031;SDS011;50278;47.796;11.968;2022-11-15T04:10:24;2.28;;;1.73;;
64031;SDS011;50278;47.796;11.968;2022-11-15T04:13:08;2.30;;;1.35;;
64031;SDS011;50278;47.796;11.968;2022-11-15T04:15:52;2.33;;;1.77;;
64031;SDS011;50278;47.796;11.968;2022-11-15T04:18:36;2.15;;;1.60;;
64031;SDS011;50278;47.796;11.968;2022-11-15T04:21:19;1.90;;;1.70;;
64031;SDS011;50278;47.796;11.968;2022-11-15T04:24:22;2.20;;;1.70;;
64031;SDS011;50278;47.796;11.968;2022-11-15T04:27:06;2.00;;;1.42;;
64031;SDS011;50278;47.796;11.968;2022-11-15T04:29:50;2.88;;;1.85;;
64031;SDS011;50278;47.796;11.968;2022-11-15T04:32:34;2.55;;;1.90;;
64031;SDS011;50278;47.796;11.968;2022-11-15T04:35:18;2.10;;;1.77;;
64031;SDS011;50278;47.796;11.968;2022-11-15T04:38:02;2.30;;;1.60;;
64031;SDS011;50278;47.796;11.968;2022-11-15T04:40:48;1.80;;;1.35;;
64031;SDS011;50278;47.796;11.968;2022-11-15T04:43:32;2.30;;;1.75;;
64031;SDS011;50278;47.796;11.968;2022-11-15T04:46:16;2.55;;;1.48;;
64031;SDS011;50278;47.796;11.968;2022-11-15T04:49:00;2.20;;;1.67;;
64031;SDS011;50278;47.796;11.968;2022-11-15T04:51:44;2.05;;;1.60;;
64031;SDS011;50278;47.796;11.968;2022-11-15T04:54:28;1.85;;;1.40;;
64031;SDS011;50278;47.796;11.968;2022-11-15T04:57:12;2.53;;;1.50;;
64031;SDS011;50278;47.796;11.968;2022-11-15T04:59:57;2.25;;;1.75;;
64031;SDS011;50278;47.796;11.968;2022-11-15T05:02:41;1.73;;;1.48;;
64031;SDS011;50278;47.796;11.968;2022-11-15T05:05:44;1.70;;;1.20;;
64031;SDS011;50278;47.796;11.968;2022-11-15T05:08:28;1.92;;;1.60;;
64031;SDS011;50278;47.796;11.968;2022-11-15T05:11:12;1.65;;;1.35;;
64031;SDS011;50278;47.796;11.968;2022-11-15T05:13:56;1.77;;;1.23;;
64031;SDS011;50278;47.796;11.968;2022-11-15T05:16:40;4.40;;;2.53;;
64031;SDS011;50278;47.796;11.968;2022-11-15T05:19:24;2.10;;;1.70;;
64031;SDS011;50278;47.796;11.968;2022-11-15T05:22:08;3.00;;;1.98;;
64031;SDS011;50278;47.796;11.968;2022-11-15T05:24:53;3.78;;;2.45;;
64031;SDS011;50278;47.796;11.968;2022-11-15T05:27:37;3.90;;;2.70;;
64031;SDS011;50278;47.796;11.968;2022-11-15T05:30:20;1.77;;;1.27;;
64031;SDS011;50278;47.796;11.968;2022-11-15T05:33:05;1.88;;;1.30;;
64031;SDS011;50278;47.796;11.968;2022-11-15T05:35:50;2.40;;;1.17;;
64031;SDS011;50278;47.796;11.968;2022-11-15T05:38:40;2.70;;;1.40;;
64031;SDS011;50278;47.796;11.968;2022-11-15T05:41:46;2.33;;;1.90;;
64031;SDS011;50278;47.796;11.968;2022-11-15T05:44:35;2.25;;;1.77;;
64031;SDS011;50278;47.796;11.968;2022-11-15T05:47:21;2.22;;;1.70;;
64031;SDS011;50278;47.796;11.968;2022-11-15T05:50:09;2.33;;;1.92;;
64031;SDS011;50278;47.796;11.968;2022-11-15T05:52:57;3.35;;;1.55;;
64031;SDS011;50278;47.796;11.968;2022-11-15T05:55:42;2.03;;;1.55;;
64031;SDS011;50278;47.796;11.968;2022-11-15T05:58:26;2.08;;;1.75;;
64031;SDS011;50278;47.796;11.968;2022-11-15T06:01:10;2.35;;;1.88;;
64031;SDS011;50278;47.796;11.968;2022-11-15T06:03:54;2.35;;;1.60;;
64031;SDS011;50278;47.796;11.968;2022-11-15T06:06:38;1.85;;;1.42;;
64031;SDS011;50278;47.796;11.968;2022-11-15T06:09:22;2.65;;;1.50;;
64031;SDS011;50278;47.796;11.968;2022-11-15T06:12:06;2.30;;;1.63;;
64031;SDS011;50278;47.796;11.968;2022-11-15T06:14:50;2.05;;;1.60;;
64031;SDS011;50278;47.796;11.968;2022-11-15T06:17:34;2.00;;;1.65;;
64031;SDS011;50278;47.796;11.968;2022-11-15T06:20:19;2.25;;;1.67;;
64031;SDS011;50278;47.796;11.968;2022-11-15T06:23:04;1.75;;;1.40;;
64031;SDS011;50278;47.796;11.968;2022-11-15T06:25:48;2.10;;;1.40;;
64031;SDS011;50278;47.796;11.968;2022-11-15T06:28:32;2.83;;;2.00;;
64031;SDS011;50278;47.796;11.968;2022-11-15T06:31:16;2.33;;;1.50;;
64031;SDS011;50278;47.796;11.968;2022-11-15T06:34:00;3.65;;;1.80;;
64031;SDS011;50278;47.796;11.968;2022-11-15T06:36:44;7.70;;;2.00;;
64031;SDS011;50278;47.796;11.968;2022-11-15T06:39:28;3.25;;;2.17;;
64031;SDS011;50278;47.796;11.968;2022-11-15T06:42:12;2.40;;;1.52;;
64031;SDS011;50278;47.796;11.968;2022-11-15T06:44:56;1.88;;;1.50;;
64031;SDS011;50278;47.796;11.968;2022-11-15T06:47:46;1.85;;;1.38;;
64031;SDS011;50278;47.796;11.968;2022-11-15T06:50:31;3.35;;;1.77;;
64031;SDS011;50278;47.796;11.968;2022-11-15T06:53:14;4.20;;;1.80;;
64031;SDS011;50278;47.796;11.968;2022-11-15T06:56:02;3.63;;;1.80;;
64031;SDS011;50278;47.796;11.968;2022-11-15T06:58:48;4.07;;;1.70;;
64031;SDS011;50278;47.796;11.968;2022-11-15T07:01:32;3.88;;;1.63;;
64031;SDS011;50278;47.796;11.968;2022-11-15T07:04:17;2.75;;;1.73;;
64031;SDS011;50278;47.796;11.968;2022-11-15T07:07:00;3.33;;;1.30;;
64031;SDS011;50278;47.796;11.968;2022-11-15T07:09:44;3.92;;;1.60;;
64031;SDS011;50278;47.796;11.968;2022-11-15T07:12:29;1.80;;;1.40;;
64031;SDS011;50278;47.796;11.968;2022-11-15T07:15:13;1.75;;;1.15;;
64031;SDS011;50278;47.796;11.968;2022-11-15T07:18:00;1.63;;;1.20;;
64031;SDS011;50278;47.796;11.968;2022-11-15T07:20:45;1.67;;;1.30;;
64031;SDS011;50278;47.796;11.968;2022-11-15T07:23:29;1.85;;;1.48;;
64031;SDS011;50278;47.796;11.968;2022-11-15T07:26:13;1.20;;;0.93;;
64031;SDS011;50278;47.796;11.968;2022-11-15T07:28:57;1.70;;;1.30;;
64031;SDS011;50278;47.796;11.968;2022-11-15T07:31:41;2.20;;;1.63;;
64031;SDS011;50278;47.796;11.968;2022-11-15T07:34:25;2.72;;;1.58;;
64031;SDS011;50278;47.796;11.968;2022-11-15T07:37:10;1.80;;;1.60;;
64031;SDS011;50278;47.796;11.968;2022-11-15T07:39:54;3.42;;;2.83;;
64031;SDS011;50278;47.796;11.968;2022-11-15T07:42:38;4.43;;;2.00;;
64031;SDS011;50278;47.796;11.968;2022-11-15T07:45:44;5.53;;;3.10;;
64031;SDS011;50278;47.796;11.968;2022-11-15T07:48:28;5.25;;;2.30;;
64031;SDS011;50278;47.796;11.968;2022-11-15T07:51:14;2.55;;;1.77;;
64031;SDS011;50278;47.796;11.968;2022-11-15T07:53:59;6.53;;;5.03;;
64031;SDS011;50278;47.796;11.968;2022-11-15T07:56:43;6.50;;;4.70;;
64031;SDS011;50278;47.796;11.968;2022-11-15T07:59:27;6.07;;;3.55;;
64031;SDS011;50278;47.796;11.968;2022-11-15T08:02:11;4.10;;;2.85;;
64031;SDS011;50278;47.796;11.968;2022-11-15T08:04:55;3.65;;;2.25;;
64031;SDS011;50278;47.796;11.968;2022-11-15T08:07:39;3.72;;;2.28;;
64031;SDS011;50278;47.796;11.968;2022-11-15T08:10:24;3.58;;;2.38;;
64031;SDS011;50278;47.796;11.968;2022-11-15T08:13:09;2.28;;;1.95;;
64031;SDS011;50278;47.796;11.968;2022-11-15T08:15:59;2.67;;;2.25;;
64031;SDS011;50278;47.796;11.968;2022-11-15T08:18:44;1.98;;;1.77;;
64031;SDS011;50278;47.796;11.968;2022-11-15T08:21:28;2.63;;;2.05;;
64031;SDS011;50278;47.796;11.968;2022-11-15T08:24:12;2.58;;;2.20;;
64031;SDS011;50278;47.796;11.968;2022-11-15T08:26:56;2.65;;;2.03;;
64031;SDS011;50278;47.796;11.968;2022-11-15T08:29:41;2.40;;;2.20;;
64031;SDS011;50278;47.796;11.968;2022-11-15T08:32:26;6.00;;;3.60;;
64031;SDS011;50278;47.796;11.968;2022-11-15T08:35:10;6.00;;;4.03;;
64031;SDS011;50278;47.796;11.968;2022-11-15T08:37:54;4.55;;;3.78;;
64031;SDS011;50278;47.796;11.968;2022-11-15T08:40:38;7.25;;;5.13;;
64031;SDS011;50278;47.796;11.968;2022-11-15T08:43:22;6.93;;;4.22;;
64031;SDS011;50278;47.796;11.968;2022-11-15T08:46:07;4.60;;;3.92;;
64031;SDS011;50278;47.796;11.968;2022-11-15T08:48:55;4.53;;;3.53;;
64031;SDS011;50278;47.796;11.968;2022-11-15T08:51:39;3.28;;;2.75;;
64031;SDS011;50278;47.796;11.968;2022-11-15T08:54:23;4.25;;;3.35;;
64031;SDS011;50278;47.796;11.968;2022-11-15T08:57:07;4.47;;;3.70;;
64031;SDS011;50278;47.796;11.968;2022-11-15T08:59:53;7.65;;;3.47;;
64031;SDS011;50278;47.796;11.968;2022-11-15T09:02:37;5.22;;;3.30;;
64031;SDS011;50278;47.796;11.968;2022-11-15T09:05:22;5.25;;;2.67;;
64031;SDS011;50278;47.796;11.968;2022-11-15T09:08:06;3.13;;;2.20;;
64031;SDS011;50278;47.796;11.968;2022-11-15T09:10:50;3.58;;;2.15;;
64031;SDS011;50278;47.796;11.968;2022-11-15T09:13:35;2.95;;;2.10;;
64031;SDS011;50278;47.796;11.968;2022-11-15T09:16:23;3.70;;;2.47;;
64031;SDS011;50278;47.796;11.968;2022-11-15T09:19:07;3.45;;;2.00;;
64031;SDS011;50278;47.796;11.968;2022-11-15T09:21:51;2.90;;;1.77;;
64031;SDS011;50278;47.796;11.968;2022-11-15T09:24:35;2.70;;;2.20;;
64031;SDS011;50278;47.796;11.968;2022-11-15T09:27:19;4.10;;;1.77;;
64031;SDS011;50278;47.796;11.968;2022-11-15T09:30:04;2.17;;;1.63;;
64031;SDS011;50278;47.796;11.968;2022-11-15T09:32:48;2.70;;;1.60;;
64031;SDS011;50278;47.796;11.968;2022-11-15T09:35:32;1.48;;;1.33;;
64031;SDS011;50278;47.796;11.968;2022-11-15T09:38:16;2.78;;;1.80;;
64031;SDS011;50278;47.796;11.968;2022-11-15T09:49:52;2.13;;;1.70;;
64031;SDS011;50278;47.796;11.968;2022-11-15T09:52:28;4.75;;;2.40;;
64031;SDS011;50278;47.796;11.968;2022-11-15T09:54:53;3.35;;;1.80;;
64031;SDS011;50278;47.796;11.968;2022-11-15T10:03:08;2.67;;;2.00;;
64031;SDS011;50278;47.796;11.968;2022-11-15T10:05:47;2.70;;;1.63;;
64031;SDS011;50278;47.796;11.968;2022-11-15T10:11:11;1.63;;;1.38;;
64031;SDS011;50278;47.796;11.968;2022-11-15T10:13:46;2.55;;;1.42;;
64031;SDS011;50278;47.796;11.968;2022-11-15T10:21:59;1.40;;;1.20;;
64031;SDS011;50278;47.796;11.968;2022-11-15T10:24:39;4.55;;;1.23;;
64031;SDS011;50278;47.796;11.968;2022-11-15T10:27:12;3.03;;;1.20;;
64031;SDS011;50278;47.796;11.968;2022-11-15T10:29:43;3.58;;;1.20;;
64031;SDS011;50278;47.796;11.968;2022-11-15T10:32:11;3.63;;;0.95;;
64031;SDS011;50278;47.796;11.968;2022-11-15T10:34:38;1.67;;;1.02;;
64031;SDS011;50278;47.796;11.968;2022-11-15T10:37:04;1.70;;;1.20;;
64031;SDS011;50278;47.796;11.968;2022-11-15T10:39:29;3.42;;;1.50;;
64031;SDS011;50278;47.796;11.968;2022-11-15T10:41:55;1.70;;;1.08;;
64031;SDS011;50278;47.796;11.968;2022-11-15T10:44:31;1.70;;;1.23;;
64031;SDS011;50278;47.796;11.968;2022-11-15T10:49:26;1.95;;;0.88;;
64031;SDS011;50278;47.796;11.968;2022-11-15T10:57:22;1.67;;;1.00;;
64031;SDS011;50278;47.796;11.968;2022-11-15T10:59:53;1.65;;;1.13;;
64031;SDS011;50278;47.796;11.968;2022-11-15T11:05:26;2.35;;;1.20;;
64031;SDS011;50278;47.796;11.968;2022-11-15T11:08:01;2.72;;;1.38;;
64031;SDS011;50278;47.796;11.968;2022-11-15T11:10:32;2.25;;;1.25;;
64031;SDS011;50278;47.796;11.968;2022-11-15T11:13:12;1.38;;;1.10;;
64031;SDS011;50278;47.796;11.968;2022-11-15T11:15:50;1.35;;;1.02;;
64031;SDS011;50278;47.796;11.968;2022-11-15T11:18:34;1.38;;;1.20;;
64031;SDS011;50278;47.796;11.968;2022-11-15T11:21:10;1.95;;;1.23;;
64031;SDS011;50278;47.796;11.968;2022-11-15T11:37:32;2.85;;;1.20;;
64031;SDS011;50278;47.796;11.968;2022-11-15T11:40:14;1.30;;;0.90;;
64031;SDS011;50278;47.796;11.968;2022-11-15T11:48:04;1.10;;;1.00;;
64031;SDS011;50278;47.796;11.968;2022-11-15T11:50:40;2.45;;;0.90;;
64031;SDS011;50278;47.796;11.968;2022-11-15T11:56:28;1.25;;;0.80;;
64031;SDS011;50278;47.796;11.968;2022-11-15T11:59:05;1.90;;;1.00;;
64031;SDS011;50278;47.796;11.968;2022-11-15T12:01:42;1.23;;;0.80;;
64031;SDS011;50278;47.796;11.968;2022-11-15T12:06:41;3.50;;;1.27;;
64031;SDS011;50278;47.796;11.968;2022-11-15T12:09:17;1.73;;;0.80;;
64031;SDS011;50278;47.796;11.968;2022-11-15T12:11:59;1.20;;;0.70;;
64031;SDS011;50278;47.796;11.968;2022-11-15T12:14:31;4.15;;;1.20;;
64031;SDS011;50278;47.796;11.968;2022-11-15T12:17:01;2.00;;;1.10;;
64031;SDS011;50278;47.796;11.968;2022-11-15T12:19:28;5.68;;;2.13;;
64031;SDS011;50278;47.796;11.968;2022-11-15T12:21:57;1.65;;;0.85;;
64031;SDS011;50278;47.796;11.968;2022-11-15T12:30:14;2.00;;;1.00;;
64031;SDS011;50278;47.796;11.968;2022-11-15T12:32:59;2.60;;;1.05;;
64031;SDS011;50278;47.796;11.968;2022-11-15T12:35:34;4.07;;;1.20;;
64031;SDS011;50278;47.796;11.968;2022-11-15T12:38:03;3.78;;;1.02;;
64031;SDS011;50278;47.796;11.968;2022-11-15T12:40:33;7.30;;;1.90;;
64031;SDS011;50278;47.796;11.968;2022-11-15T12:45:39;6.20;;;1.25;;
64031;SDS011;50278;47.796;11.968;2022-11-15T12:58:41;3.33;;;1.13;;
64031;SDS011;50278;47.796;11.968;2022-11-15T13:17:44;1.25;;;0.68;;
64031;SDS011;50278;47.796;11.968;2022-11-15T13:20:18;3.47;;;1.00;;
64031;SDS011;50278;47.796;11.968;2022-11-15T13:22:48;3.90;;;0.77;;
64031;SDS011;50278;47.796;11.968;2022-11-15T13:33:16;11.75;;;1.80;;
64031;SDS011;50278;47.796;11.968;2022-11-15T13:35:54;15.13;;;2.17;;
64031;SDS011;50278;47.796;11.968;2022-11-15T13:40:51;1.58;;;0.80;;
64031;SDS011;50278;47.796;11.968;2022-11-15T13:46:03;1.80;;;0.80;;
64031;SDS011;50278;47.796;11.968;2022-11-15T13:48:29;0.82;;;0.60;;
64031;SDS011;50278;47.796;11.968;2022-11-15T13:50:54;1.20;;;0.60;;
64031;SDS011;50278;47.796;11.968;2022-11-15T13:53:22;0.85;;;0.57;;
64031;SDS011;50278;47.796;11.968;2022-11-15T13:55:47;0.93;;;0.60;;
64031;SDS011;50278;47.796;11.968;2022-11-15T13:58:13;1.77;;;0.70;;
64031;SDS011;50278;47.796;11.968;2022-11-15T14:08:37;1.95;;;0.75;;
64031;SDS011;50278;47.796;11.968;2022-11-15T14:11:08;2.03;;;1.10;;
64031;SDS011;50278;47.796;11.968;2022-11-15T14:13:34;10.18;;;1.52;;
64031;SDS011;50278;47.796;11.968;2022-11-15T14:16:15;5.00;;;1.00;;
64031;SDS011;50278;47.796;11.968;2022-11-15T14:21:12;2.10;;;0.80;;
64031;SDS011;50278;47.796;11.968;2022-11-15T14:23:38;2.10;;;1.02;;
64031;SDS011;50278;47.796;11.968;2022-11-15T14:26:04;5.32;;;1.58;;
64031;SDS011;50278;47.796;11.968;2022-11-15T14:28:31;2.80;;;1.20;;
64031;SDS011;50278;47.796;11.968;2022-11-15T14:30:58;3.88;;;1.25;;
64031;SDS011;50278;47.796;11.968;2022-11-15T14:35:51;2.13;;;1.38;;
64031;SDS011;50278;47.796;11.968;2022-11-15T14:38:17;1.27;;;0.88;;
64031;SDS011;50278;47.796;11.968;2022-11-15T14:40:43;3.35;;;1.35;;
64031;SDS011;50278;47.796;11.968;2022-11-15T14:43:10;2.17;;;1.10;;
64031;SDS011;50278;47.796;11.968;2022-11-15T14:45:36;2.30;;;1.50;;
64031;SDS011;50278;47.796;11.968;2022-11-15T14:48:02;3.15;;;1.10;;
64031;SDS011;50278;47.796;11.968;2022-11-15T14:50:28;2.28;;;1.25;;
64031;SDS011;50278;47.796;11.968;2022-11-15T14:52:54;2.00;;;1.40;;
64031;SDS011;50278;47.796;11.968;2022-11-15T14:55:24;1.65;;;1.17;;
64031;SDS011;50278;47.796;11.968;2022-11-15T14:57:52;2.25;;;1.35;;
64031;SDS011;50278;47.796;11.968;2022-11-15T15:00:18;2.33;;;1.20;;
64031;SDS011;50278;47.796;11.968;2022-11-15T15:02:45;2.25;;;1.30;;
64031;SDS011;50278;47.796;11.968;2022-11-15T15:05:21;2.85;;;1.50;;
64031;SDS011;50278;47.796;11.968;2022-11-15T15:07:54;19.80;;;2.40;;
64031;SDS011;50278;47.796;11.968;2022-11-15T15:10:20;1.70;;;1.23;;
64031;SDS011;50278;47.796;11.968;2022-11-15T15:12:46;2.88;;;1.48;;
64031;SDS011;50278;47.796;11.968;2022-11-15T15:15:12;2.95;;;1.40;;
64031;SDS011;50278;47.796;11.968;2022-11-15T15:17:40;2.28;;;1.20;;
64031;SDS011;50278;47.796;11.968;2022-11-15T15:20:05;29.52;;;3.28;;
64031;SDS011;50278;47.796;11.968;2022-11-15T15:22:31;3.00;;;1.27;;
64031;SDS011;50278;47.796;11.968;2022-11-15T15:24:57;23.17;;;3.10;;
64031;SDS011;50278;47.796;11.968;2022-11-15T15:27:23;1.67;;;1.38;;
64031;SDS011;50278;47.796;11.968;2022-11-15T15:29:48;4.68;;;1.10;;
64031;SDS011;50278;47.796;11.968;2022-11-15T15:32:14;3.58;;;1.23;;
64031;SDS011;50278;47.796;11.968;2022-11-15T15:34:39;4.28;;;1.30;;
64031;SDS011;50278;47.796;11.968;2022-11-15T15:39:48;1.30;;;0.90;;
64031;SDS011;50278;47.796;11.968;2022-11-15T15:42:15;1.85;;;1.23;;
64031;SDS011;50278;47.796;11.968;2022-11-15T15:44:41;2.00;;;1.10;;
64031;SDS011;50278;47.796;11.968;2022-11-15T15:47:13;2.95;;;1.10;;
64031;SDS011;50278;47.796;11.968;2022-11-15T15:49:47;3.60;;;1.17;;
64031;SDS011;50278;47.796;11.968;2022-11-15T15:52:13;3.10;;;1.00;;
64031;SDS011;50278;47.796;11.968;2022-11-15T15:54:39;10.60;;;1.65;;
64031;SDS011;50278;47.796;11.968;2022-11-15T15:57:06;2.28;;;1.27;;
64031;SDS011;50278;47.796;11.968;2022-11-15T15:59:32;1.90;;;1.45;;
64031;SDS011;50278;47.796;11.968;2022-11-15T16:01:57;3.92;;;1.08;;
64031;SDS011;50278;47.796;11.968;2022-11-15T16:04:23;2.28;;;1.45;;
64031;SDS011;50278;47.796;11.968;2022-11-15T16:06:49;1.75;;;1.10;;
64031;SDS011;50278;47.796;11.968;2022-11-15T16:09:18;2.17;;;1.35;;
64031;SDS011;50278;47.796;11.968;2022-11-15T16:12:04;3.47;;;1.35;;
64031;SDS011;50278;47.796;11.968;2022-11-15T16:14:31;2.20;;;1.42;;
64031;SDS011;50278;47.796;11.968;2022-11-15T16:16:56;2.30;;;1.77;;
64031;SDS011;50278;47.796;11.968;2022-11-15T16:19:22;3.38;;;1.90;;
64031;SDS011;50278;47.796;11.968;2022-11-15T16:21:48;3.15;;;2.45;;
64031;SDS011;50278;47.796;11.968;2022-11-15T16:24:13;3.33;;;2.40;;
64031;SDS011;50278;47.796;11.968;2022-11-15T16:26:39;4.40;;;3.22;;
64031;SDS011;50278;47.796;11.968;2022-11-15T16:29:04;2.13;;;1.58;;
64031;SDS011;50278;47.796;11.968;2022-11-15T16:31:31;4.38;;;1.63;;
64031;SDS011;50278;47.796;11.968;2022-11-15T16:33:57;2.70;;;1.83;;
64031;SDS011;50278;47.796;11.968;2022-11-15T16:36:24;3.22;;;1.52;;
64031;SDS011;50278;47.796;11.968;2022-11-15T16:38:50;2.15;;;1.73;;
64031;SDS011;50278;47.796;11.968;2022-11-15T16:41:17;2.22;;;1.55;;
64031;SDS011;50278;47.796;11.968;2022-11-15T16:43:46;2.00;;;1.70;;
64031;SDS011;50278;47.796;11.968;2022-11-15T16:46:15;2.65;;;1.75;;
64031;SDS011;50278;47.796;11.968;2022-11-15T16:48:43;2.08;;;1.60;;
64031;SDS011;50278;47.796;11.968;2022-11-15T16:51:09;1.88;;;1.50;;
64031;SDS011;50278;47.796;11.968;2022-11-15T16:53:35;2.22;;;1.67;;
64031;SDS011;50278;47.796;11.968;2022-11-15T16:56:01;2.30;;;1.95;;
64031;SDS011;50278;47.796;11.968;2022-11-15T16:58:26;5.68;;;3.50;;
64031;SDS011;50278;47.796;11.968;2022-11-15T17:00:52;2.58;;;2.00;;
64031;SDS011;50278;47.796;11.968;2022-11-15T17:03:20;2.55;;;1.88;;
64031;SDS011;50278;47.796;11.968;2022-11-15T17:05:47;2.97;;;1.88;;
64031;SDS011;50278;47.796;11.968;2022-11-15T17:08:13;2.47;;;1.98;;
64031;SDS011;50278;47.796;11.968;2022-11-15T17:10:39;2.65;;;2.13;;
64031;SDS011;50278;47.796;11.968;2022-11-15T17:13:05;2.95;;;2.35;;
64031;SDS011;50278;47.796;11.968;2022-11-15T17:15:32;4.90;;;1.70;;
64031;SDS011;50278;47.796;11.968;2022-11-15T17:17:58;2.45;;;1.70;;
64031;SDS011;50278;47.796;11.968;2022-11-15T17:20:24;1.88;;;1.42;;
64031;SDS011;50278;47.796;11.968;2022-11-15T17:22:50;2.47;;;1.50;;
64031;SDS011;50278;47.796;11.968;2022-11-15T17:25:17;4.65;;;2.25;;
64031;SDS011;50278;47.796;11.968;2022-11-15T17:27:43;2.22;;;1.60;;
64031;SDS011;50278;47.796;11.968;2022-11-15T17:30:09;2.45;;;1.75;;
64031;SDS011;50278;47.796;11.968;2022-11-15T17:32:37;2.20;;;1.70;;
64031;SDS011;50278;47.796;11.968;2022-11-15T17:35:03;4.10;;;3.33;;
64031;SDS011;50278;47.796;11.968;2022-11-15T17:37:31;4.50;;;2.25;;
64031;SDS011;50278;47.796;11.968;2022-11-15T17:39:57;1.80;;;1.50;;
64031;SDS011;50278;47.796;11.968;2022-11-15T17:42:23;2.70;;;2.45;;
64031;SDS011;50278;47.796;11.968;2022-11-15T17:44:48;5.22;;;3.13;;
64031;SDS011;50278;47.796;11.968;2022-11-15T17:47:14;4.68;;;3.67;;
64031;SDS011;50278;47.796;11.968;2022-11-15T17:49:40;4.43;;;3.63;;
64031;SDS011;50278;47.796;11.968;2022-11-15T17:52:05;3.83;;;3.38;;
64031;SDS011;50278;47.796;11.968;2022-11-15T17:54:31;4.47;;;3.60;;
64031;SDS011;50278;47.796;11.968;2022-11-15T17:56:57;3.22;;;2.80;;
64031;SDS011;50278;47.796;11.968;2022-11-15T17:59:23;3.92;;;3.28;;
64031;SDS011;50278;47.796;11.968;2022-11-15T18:01:48;2.60;;;2.40;;
64031;SDS011;50278;47.796;11.968;2022-11-15T18:04:14;5.45;;;2.17;;
64031;SDS011;50278;47.796;11.968;2022-11-15T18:06:40;2.47;;;1.90;;
64031;SDS011;50278;47.796;11.968;2022-11-15T18:09:06;2.40;;;2.15;;
64031;SDS011;50278;47.796;11.968;2022-11-15T18:11:42;2.30;;;1.98;;
64031;SDS011;50278;47.796;11.968;2022-11-15T18:14:12;2.72;;;2.17;;
64031;SDS011;50278;47.796;11.968;2022-11-15T18:16:39;2.00;;;1.67;;
64031;SDS011;50278;47.796;11.968;2022-11-15T18:19:05;3.85;;;2.30;;